»·PEaware :: DAL455 KLAX-KSLC

DAL455 :: KLAX-KSLC

FLIGHT INFORMATION

Flight Status: Arrived
Operator:
Delta Air Lines
More flights by this operator :: More flights under this callsign
Pilot: Tyler S. (26661)
Aircraft: BOEING 737-800
(B738)
More flights by this aircraft type
Origin: KLAX Los Angeles Intl
United States
Destination: KSLC Salt Lake City Intl
United States
More flights between these airports :: More routes between these airports
Route: +ORCKA5 LAS Q70 BLIPP Q842 WINEN MLF QWENN5
File this flight plan on PilotEdge
Remarks: TCAS AGCS EQUIPPED NRP USA SIMBRIEF
Altitude:
(Current/Filed)
37,000ft
Speed:
(Current/Filed)
435kts
Departed: 20-Nov-20 01:44 PM
Arrived: 20-Nov-20 03:11 PM
Distance/Time
Traveled:
512nm/1:27
Distance/Time
To Go:
Arrived

Flight Plot

Page will automatically refresh every two minutes.

Flight plan parsing failed; only flown route is shown


Map Options




Map Legend


Flown Route
Filed Route
Departure Airport
Arrival Airport
Navaid (VOR, NDB)
Fix

Horizontal Profiles

Position Reports

Time Latitude Longitude Heading Altitude Ground
Speed
20-Nov-20 13:27 33.946216 -118.404776 83 122ft 0kts
20-Nov-20 13:27 33.946216 -118.404776 83 122ft 0kts
20-Nov-20 13:29 33.946216 -118.404776 83 122ft 0kts
20-Nov-20 13:29 33.946216 -118.404776 83 122ft 0kts
20-Nov-20 13:31 33.946216 -118.404776 83 122ft 0kts
20-Nov-20 13:31 33.946216 -118.404776 83 122ft 0kts
20-Nov-20 13:32 33.946216 -118.404776 83 122ft 0kts
20-Nov-20 13:33 33.946216 -118.404776 83 122ft 0kts
20-Nov-20 13:34 33.946216 -118.404776 83 122ft 0kts
20-Nov-20 13:35 33.946216 -118.404776 83 122ft 0kts
20-Nov-20 13:36 33.946200 -118.404981 86 122ft 2kts
20-Nov-20 13:37 33.946154 -118.405594 56 122ft 1kts
20-Nov-20 13:38 33.945996 -118.405636 353 122ft 0kts
20-Nov-20 13:39 33.945996 -118.405636 353 122ft 0kts
20-Nov-20 13:40 33.947047 -118.405782 352 122ft 9kts
20-Nov-20 13:41 33.948961 -118.402765 82 120ft 19kts
20-Nov-20 13:42 33.950083 -118.400900 324 117ft 11kts
20-Nov-20 13:43 33.948095 -118.423414 264 190ft 182kts
20-Nov-20 13:44 33.938115 -118.487140 245 3205ft 195kts
20-Nov-20 13:45 33.893759 -118.465050 86 5379ft 267kts
20-Nov-20 13:46 33.945025 -118.398513 45 8629ft 293kts
20-Nov-20 13:47 33.998091 -118.317682 55 11341ft 332kts
20-Nov-20 13:48 34.052325 -118.222267 55 14189ft 358kts
20-Nov-20 13:49 34.110696 -118.119144 55 15985ft 378kts
20-Nov-20 13:50 34.169673 -118.014467 55 17422ft 387kts
20-Nov-20 13:51 34.232089 -117.903513 55 19830ft 408kts
20-Nov-20 13:52 34.297209 -117.787393 54 22026ft 427kts
20-Nov-20 13:53 34.365426 -117.666255 51 24092ft 443kts
20-Nov-20 13:54 34.439233 -117.543404 51 25995ft 458kts
20-Nov-20 13:55 34.514979 -117.416162 50 27695ft 473kts
20-Nov-20 13:56 34.593195 -117.284414 50 29253ft 487kts
20-Nov-20 13:57 34.673292 -117.148914 49 30659ft 499kts
20-Nov-20 13:58 34.754202 -117.011451 48 32341ft 501kts
20-Nov-20 13:59 34.834998 -116.873694 48 34212ft 495kts
20-Nov-20 14:00 34.914597 -116.737595 46 35756ft 492kts
20-Nov-20 14:01 35.006154 -116.614271 39 36776ft 495kts
20-Nov-20 14:02 35.100943 -116.489310 39 37260ft 515kts
20-Nov-20 14:03 35.198191 -116.360440 39 37257ft 512kts
20-Nov-20 14:04 35.294676 -116.232356 40 37242ft 513kts
20-Nov-20 14:05 35.391764 -116.102809 40 37243ft 513kts
20-Nov-20 14:06 35.487954 -115.974003 40 37247ft 513kts
20-Nov-20 14:07 35.584082 -115.844776 40 37257ft 513kts
20-Nov-20 14:08 35.679897 -115.713918 41 37282ft 513kts
20-Nov-20 14:09 35.775293 -115.582473 41 37291ft 514kts
20-Nov-20 14:10 35.870938 -115.450361 40 37293ft 514kts
20-Nov-20 14:11 35.965812 -115.318846 41 37274ft 514kts
20-Nov-20 14:12 36.060817 -115.186662 41 37264ft 514kts
20-Nov-20 14:13 36.164243 -115.068856 32 37234ft 500kts
20-Nov-20 14:14 36.268766 -114.956239 32 37238ft 496kts
20-Nov-20 14:15 36.372996 -114.843473 32 37233ft 498kts
20-Nov-20 14:16 36.477569 -114.729649 32 37232ft 500kts
20-Nov-20 14:17 36.582264 -114.615578 32 37236ft 498kts
20-Nov-20 14:18 36.686623 -114.501441 32 37238ft 499kts
20-Nov-20 14:19 36.798648 -114.405636 21 37252ft 485kts
20-Nov-20 14:20 36.913398 -114.315747 22 37252ft 486kts
20-Nov-20 14:21 37.028184 -114.225362 22 37270ft 490kts
20-Nov-20 14:22 37.144756 -114.133208 22 37271ft 499kts
20-Nov-20 14:23 37.261567 -114.040470 22 37272ft 497kts
20-Nov-20 14:24 37.381501 -113.945250 23 34682ft 552kts
20-Nov-20 14:25 37.500231 -113.849845 21 34999ft 485kts
20-Nov-20 14:26 37.615230 -113.757711 21 36373ft 489kts
20-Nov-20 14:27 37.730617 -113.664849 22 37183ft 501kts
20-Nov-20 14:28 37.847982 -113.569837 22 37365ft 498kts
20-Nov-20 14:29 37.962423 -113.468681 32 37373ft 511kts
20-Nov-20 14:30 38.067759 -113.347605 33 37370ft 512kts
20-Nov-20 14:31 38.174140 -113.226710 33 37361ft 511kts
20-Nov-20 14:32 38.280058 -113.105677 33 37371ft 512kts
20-Nov-20 14:33 38.390328 -112.997767 13 37379ft 471kts
20-Nov-20 14:34 38.509011 -112.934142 10 37377ft 465kts
20-Nov-20 14:35 38.628419 -112.870377 11 36611ft 473kts
20-Nov-20 14:36 38.749811 -112.805179 11 34055ft 467kts
20-Nov-20 14:37 38.864440 -112.743334 11 32024ft 430kts
20-Nov-20 14:38 38.974018 -112.684320 13 30116ft 443kts
20-Nov-20 14:39 39.083264 -112.624836 13 28223ft 409kts
20-Nov-20 14:40 39.187943 -112.568134 14 26406ft 421kts
20-Nov-20 14:41 39.294698 -112.509755 15 24550ft 412kts
20-Nov-20 14:42 39.396122 -112.451789 16 24409ft 403kts
20-Nov-20 14:43 39.497980 -112.393253 16 24409ft 399kts
20-Nov-20 14:44 39.598910 -112.335138 18 22915ft 403kts
20-Nov-20 14:45 39.701303 -112.275818 19 20227ft 387kts
20-Nov-20 14:46 39.794298 -112.221918 20 18562ft 349kts
20-Nov-20 14:47 39.880135 -112.172048 21 16650ft 332kts
20-Nov-20 14:48 39.963213 -112.123626 21 15142ft 326kts
20-Nov-20 14:49 40.046718 -112.073331 22 15000ft 331kts
20-Nov-20 14:50 40.130127 -112.022914 22 14998ft 331kts
20-Nov-20 14:51 40.213938 -111.972118 22 14999ft 331kts
20-Nov-20 14:52 40.300167 -111.938443 356 15006ft 325kts
20-Nov-20 14:53 40.390581 -111.935979 358 14994ft 323kts
20-Nov-20 14:54 40.476123 -111.946626 332 13307ft 295kts
20-Nov-20 14:55 40.551579 -111.969949 353 11407ft 263kts
20-Nov-20 14:56 40.621449 -111.977652 352 9364ft 232kts
20-Nov-20 14:57 40.681669 -111.985759 339 10526ft 210kts
20-Nov-20 14:58 40.709729 -112.057860 271 10606ft 226kts
20-Nov-20 14:59 40.675673 -112.114144 181 10094ft 221kts
20-Nov-20 15:00 40.613124 -112.100092 171 10010ft 229kts
20-Nov-20 15:01 40.550359 -112.084167 171 10013ft 230kts
20-Nov-20 15:02 40.497298 -112.046811 110 8601ft 232kts
20-Nov-20 15:03 40.487502 -111.965037 75 8015ft 229kts
20-Nov-20 15:05 40.536564 -111.932728 331 8012ft 220kts
20-Nov-20 15:06 40.585215 -111.974491 351 7656ft 203kts
20-Nov-20 15:07 40.639952 -111.979882 352 6925ft 213kts
20-Nov-20 15:08 40.692275 -111.985851 351 5885ft 168kts
20-Nov-20 15:09 40.734446 -111.990779 351 5060ft 145kts
20-Nov-20 15:10 40.773958 -111.995495 352 4296ft 142kts
20-Nov-20 15:11 40.794781 -111.996742 32 4226ft 16kts
20-Nov-20 15:12 40.791761 -111.994294 174 4226ft 26kts
20-Nov-20 15:13 40.784726 -111.992990 135 4226ft 19kts
20-Nov-20 15:14 40.786328 -111.988397 334 4226ft 21kts
20-Nov-20 15:15 40.787511 -111.985111 70 4226ft 0kts

Navigation Log

Ident Type
Flight plan parsing failed, navigation log unavailable